Time,TemperatureF,DewpointF,PressureIn,WindDirection,WindDirectionDegrees,WindSpeedMPH,WindSpeedGustMPH,Humidity,HourlyPrecipIn,Conditions,Clouds,dailyrainin,SoftwareType,DateUTC
2013-07-19 07:39:00,71.8,68.0,28.85,SE,126,0.0,0.0,88,0.00,,CLR,0.00,VWS V14.01,2013-07-19 11:39:00,
2013-07-19 07:44:00,72.0,68.2,28.85,SE,126,0.0,0.0,88,0.00,,CLR,0.00,VWS V14.01,2013-07-19 11:44:00,
2013-07-19 07:49:00,72.1,68.1,28.85,SE,126,0.0,0.0,87,0.00,,CLR,0.00,VWS V14.01,2013-07-19 11:49:00,
2013-07-19 07:54:00,72.5,67.7,28.85,SE,126,0.0,0.0,85,0.00,,CLR,0.00,VWS V14.01,2013-07-19 11:54:00,
2013-07-19 08:00:00,72.9,67.8,28.85,SE,126,0.0,0.0,84,0.00,,CLR,0.00,VWS V14.01,2013-07-19 12:00:00,
2013-07-19 08:05:00,73.4,67.2,28.85,SE,126,0.0,0.0,81,0.00,,CLR,0.00,VWS V14.01,2013-07-19 12:05:00,
2013-07-19 08:10:00,73.6,67.0,28.85,SE,126,0.0,0.0,80,0.00,,CLR,0.00,VWS V14.01,2013-07-19 12:10:00,
2013-07-19 08:15:00,74.1,64.5,28.85,SE,126,0.0,0.0,72,0.00,,CLR,0.00,VWS V14.01,2013-07-19 12:15:00,
2013-07-19 08:20:00,74.7,63.8,28.85,SE,126,0.0,0.0,69,0.00,,CLR,0.00,VWS V14.01,2013-07-19 12:20:00,
2013-07-19 08:25:00,75.4,62.4,28.85,SE,126,0.0,0.0,64,0.00,,CLR,0.00,VWS V14.01,2013-07-19 12:25:00,
2013-07-19 08:30:00,76.3,60.0,28.85,SE,126,0.0,0.0,57,0.00,,CLR,0.00,VWS V14.01,2013-07-19 12:30:00,
2013-07-19 08:35:00,77.4,57.3,28.85,SE,126,0.0,0.0,50,0.00,,CLR,0.00,VWS V14.01,2013-07-19 12:35:00,
2013-07-19 08:40:00,77.4,57.3,28.85,SE,126,0.0,0.0,50,0.00,,CLR,0.00,VWS V14.01,2013-07-19 12:40:00,
2013-07-19 08:45:00,78.4,58.3,28.85,SE,126,0.0,0.0,50,0.00,,CLR,0.00,VWS V14.01,2013-07-19 12:45:00,
2013-07-19 08:51:00,79.3,54.9,28.88,SE,126,2.2,2.2,43,0.00,,CLR,0.00,VWS V14.01,2013-07-19 12:51:00,
2013-07-19 08:56:00,79.7,55.9,28.88,East,82,2.2,2.2,44,0.00,,CLR,0.00,VWS V14.01,2013-07-19 12:56:00,
2013-07-19 09:01:00,80.2,54.4,28.88,East,83,0.0,0.0,41,0.00,,CLR,0.00,VWS V14.01,2013-07-19 13:01:00,
2013-07-19 09:06:00,81.0,54.4,28.88,East,83,0.0,0.0,40,0.00,,CLR,0.00,VWS V14.01,2013-07-19 13:06:00,
2013-07-19 09:11:00,81.1,53.9,28.88,East,83,0.0,0.0,39,0.00,,CLR,0.00,VWS V14.01,2013-07-19 13:11:00,
2013-07-19 09:16:00,80.8,54.9,28.88,East,83,0.0,0.0,41,0.00,,CLR,0.00,VWS V14.01,2013-07-19 13:16:00,
2013-07-19 09:21:00,81.5,54.9,28.88,East,92,0.0,0.0,40,0.00,,CLR,0.00,VWS V14.01,2013-07-19 13:21:00,
2013-07-19 09:26:00,81.7,56.4,28.88,East,92,3.6,3.6,42,0.00,,CLR,0.00,VWS V14.01,2013-07-19 13:26:00,
2013-07-19 09:31:00,82.6,53.7,28.88,SE,128,2.2,3.6,37,0.00,,CLR,0.00,VWS V14.01,2013-07-19 13:31:00,
2013-07-19 09:36:00,83.3,53.6,28.85,SE,128,2.2,2.7,36,0.00,,CLR,0.00,VWS V14.01,2013-07-19 13:36:00,
2013-07-19 09:41:00,83.5,54.5,28.85,SE,128,2.2,2.2,37,0.00,,CLR,0.00,VWS V14.01,2013-07-19 13:41:00,
2013-07-19 09:46:00,83.1,52.7,28.85,SE,128,0.0,0.0,35,0.00,,CLR,0.00,VWS V14.01,2013-07-19 13:46:00,
2013-07-19 09:51:00,83.3,52.8,28.88,SE,128,0.0,0.0,35,0.00,,CLR,0.00,VWS V14.01,2013-07-19 13:51:00,
2013-07-19 09:56:00,83.3,54.3,28.88,SE,128,0.0,0.0,37,0.00,,CLR,0.00,VWS V14.01,2013-07-19 13:56:00,
2013-07-19 10:02:00,83.5,55.2,28.88,SE,128,0.0,0.0,38,0.00,,CLR,0.00,VWS V14.01,2013-07-19 14:02:00,
2013-07-19 10:07:00,83.8,54.1,28.88,SE,128,2.2,2.2,36,0.00,,CLR,0.00,VWS V14.01,2013-07-19 14:07:00,
2013-07-19 10:12:00,84.9,54.2,28.88,SE,128,0.0,0.0,35,0.00,,CLR,0.00,VWS V14.01,2013-07-19 14:12:00,
2013-07-19 10:17:00,85.3,54.6,28.85,SE,128,0.0,0.0,35,0.00,,CLR,0.00,VWS V14.01,2013-07-19 14:17:00,
2013-07-19 10:22:00,85.1,55.2,28.85,SE,128,0.0,2.2,36,0.00,,CLR,0.00,VWS V14.01,2013-07-19 14:22:00,
2013-07-19 10:27:00,86.0,53.6,28.85,SE,128,0.0,0.0,33,0.00,,CLR,0.00,VWS V14.01,2013-07-19 14:27:00,
2013-07-19 10:32:00,86.5,53.2,28.85,SE,128,0.0,2.2,32,0.00,,CLR,0.00,VWS V14.01,2013-07-19 14:32:00,
2013-07-19 10:37:00,85.8,54.2,28.85,SSW,209,0.0,2.7,34,0.00,,CLR,0.00,VWS V14.01,2013-07-19 14:37:00,
2013-07-19 10:42:00,85.3,51.2,28.85,South,191,0.0,0.0,31,0.00,,CLR,0.00,VWS V14.01,2013-07-19 14:42:00,
2013-07-19 10:47:00,85.6,54.9,28.88,South,191,2.7,2.7,35,0.00,,CLR,0.00,VWS V14.01,2013-07-19 14:47:00,
2013-07-19 10:52:00,86.0,53.6,28.88,South,191,0.0,0.0,33,0.00,,CLR,0.00,VWS V14.01,2013-07-19 14:52:00,
2013-07-19 10:57:00,87.1,52.8,28.88,South,191,0.0,0.0,31,0.00,,CLR,0.00,VWS V14.01,2013-07-19 14:57:00,
2013-07-19 11:03:00,88.0,52.7,28.85,SSE,157,0.0,0.0,30,0.00,,CLR,0.00,VWS V14.01,2013-07-19 15:03:00,
2013-07-19 11:08:00,88.0,52.7,28.85,SSE,157,0.0,0.0,30,0.00,,CLR,0.00,VWS V14.01,2013-07-19 15:08:00,
2013-07-19 11:13:00,88.9,53.5,28.85,SSE,157,2.2,2.2,30,0.00,,CLR,0.00,VWS V14.01,2013-07-19 15:13:00,
2013-07-19 11:18:00,89.6,54.1,28.85,SE,131,0.0,0.0,30,0.00,,CLR,0.00,VWS V14.01,2013-07-19 15:18:00,
2013-07-19 11:23:00,89.2,51.9,28.85,SE,131,0.0,0.0,28,0.00,,CLR,0.00,VWS V14.01,2013-07-19 15:23:00,
2013-07-19 11:28:00,88.7,51.4,28.85,ESE,106,5.4,5.4,28,0.00,,CLR,0.00,VWS V14.01,2013-07-19 15:28:00,
2013-07-19 11:33:00,89.1,52.7,28.85,NE,52,0.0,0.0,29,0.00,,CLR,0.00,VWS V14.01,2013-07-19 15:33:00,
2013-07-19 11:38:00,88.9,50.6,28.85,SSW,209,2.7,2.7,27,0.00,,CLR,0.00,VWS V14.01,2013-07-19 15:38:00,
2013-07-19 11:43:00,88.9,51.6,28.85,WNW,286,0.0,0.0,28,0.00,,CLR,0.00,VWS V14.01,2013-07-19 15:43:00,
2013-07-19 11:48:00,89.1,50.8,28.85,West,269,3.6,3.6,27,0.00,,CLR,0.00,VWS V14.01,2013-07-19 15:48:00,
2013-07-19 11:53:00,87.6,50.5,28.85,SW,225,3.1,3.1,28,0.00,,CLR,0.00,VWS V14.01,2013-07-19 15:53:00,
2013-07-19 11:58:00,87.1,51.0,28.85,SW,235,0.0,0.0,29,0.00,,CLR,0.00,VWS V14.01,2013-07-19 15:58:00,
2013-07-19 12:03:00,87.1,51.9,28.85,SW,234,0.0,0.0,30,0.00,,CLR,0.00,VWS V14.01,2013-07-19 16:03:00,
2013-07-19 12:08:00,87.4,51.3,28.85,SW,234,0.0,0.0,29,0.00,,CLR,0.00,VWS V14.01,2013-07-19 16:08:00,
2013-07-19 12:13:00,88.3,50.2,28.85,West,275,0.0,0.0,27,0.00,,CLR,0.00,VWS V14.01,2013-07-19 16:13:00,
2013-07-19 12:18:00,89.1,48.7,28.85,SW,225,0.0,2.7,25,0.00,,CLR,0.00,VWS V14.01,2013-07-19 16:18:00,
2013-07-19 12:23:00,89.2,44.2,28.85,SW,235,0.0,0.0,21,0.00,,CLR,0.00,VWS V14.01,2013-07-19 16:23:00,
2013-07-19 12:28:00,90.0,50.5,28.85,SW,235,2.7,2.7,26,0.00,,CLR,0.00,VWS V14.01,2013-07-19 16:28:00,
2013-07-19 12:33:00,90.0,49.5,28.85,SW,235,2.7,2.7,25,0.00,,CLR,0.00,VWS V14.01,2013-07-19 16:33:00,
2013-07-19 12:38:00,90.0,46.1,28.85,West,261,2.2,2.2,22,0.00,,CLR,0.00,VWS V14.01,2013-07-19 16:38:00,
2013-07-19 12:43:00,90.0,46.1,28.85,WSW,238,0.0,2.7,22,0.00,,CLR,0.00,VWS V14.01,2013-07-19 16:43:00,
2013-07-19 12:49:00,89.6,46.9,28.85,SSW,204,3.1,4.0,23,0.00,,CLR,0.00,VWS V14.01,2013-07-19 16:49:00,
2013-07-19 12:54:00,88.9,46.3,28.85,SSW,209,2.7,2.7,23,0.00,,CLR,0.00,VWS V14.01,2013-07-19 16:54:00,
2013-07-19 12:59:00,88.2,47.9,28.85,SW,224,2.2,2.2,25,0.00,,CLR,0.00,VWS V14.01,2013-07-19 16:59:00,
2013-07-19 13:04:00,87.8,46.5,28.85,SW,224,0.0,0.0,24,0.00,,CLR,0.00,VWS V14.01,2013-07-19 17:04:00,
2013-07-19 13:09:00,88.5,51.3,28.85,WSW,251,3.6,4.0,28,0.00,,CLR,0.00,VWS V14.01,2013-07-19 17:09:00,
2013-07-19 13:14:00,89.6,43.3,28.85,SW,226,3.1,3.1,20,0.00,,CLR,0.00,VWS V14.01,2013-07-19 17:14:00,
2013-07-19 13:19:00,90.3,47.5,28.85,SSW,205,4.0,4.0,23,0.00,,CLR,0.00,VWS V14.01,2013-07-19 17:19:00,
2013-07-19 13:24:00,90.9,46.8,28.85,SSW,208,0.0,0.0,22,0.00,,CLR,0.00,VWS V14.01,2013-07-19 17:24:00,
2013-07-19 13:29:00,91.0,45.7,28.85,SSW,205,3.1,3.1,21,0.00,,CLR,0.00,VWS V14.01,2013-07-19 17:29:00,
2013-07-19 13:34:00,90.5,44.0,28.82,South,176,0.0,3.6,20,0.00,,CLR,0.00,VWS V14.01,2013-07-19 17:34:00,
2013-07-19 13:39:00,90.0,44.8,28.82,SW,214,0.0,0.0,21,0.00,,CLR,0.00,VWS V14.01,2013-07-19 17:39:00,
2013-07-19 13:45:00,90.0,48.4,28.82,East,84,2.2,2.2,24,0.00,,CLR,0.00,VWS V14.01,2013-07-19 17:45:00,
2013-07-19 13:50:00,89.4,49.0,28.82,SSW,192,3.1,3.1,25,0.00,,CLR,0.00,VWS V14.01,2013-07-19 17:50:00,
2013-07-19 13:55:00,89.2,46.6,28.82,WSW,241,2.7,3.1,23,0.00,,CLR,0.00,VWS V14.01,2013-07-19 17:55:00,
2013-07-19 14:00:00,89.6,45.8,28.82,South,191,0.0,0.0,22,0.00,,CLR,0.00,VWS V14.01,2013-07-19 18:00:00,
2013-07-19 14:05:00,89.8,45.9,28.82,SE,143,2.2,2.7,22,0.00,,SCT045,0.00,VWS V14.01,2013-07-19 18:05:00,
2013-07-19 14:10:00,89.6,45.8,28.82,SSW,212,2.2,4.9,22,0.00,,SCT045,0.00,VWS V14.01,2013-07-19 18:10:00,
2013-07-19 14:15:00,89.6,46.9,28.82,SSE,165,5.4,5.4,23,0.00,,SCT045,0.00,VWS V14.01,2013-07-19 18:15:00,
2013-07-19 14:20:00,89.2,47.8,28.82,South,169,0.0,0.0,24,0.00,,SCT045,0.00,VWS V14.01,2013-07-19 18:20:00,
2013-07-19 14:25:00,89.8,48.2,28.82,South,169,0.0,0.0,24,0.00,,SCT045,0.00,VWS V14.01,2013-07-19 18:25:00,
2013-07-19 14:30:00,90.3,46.3,28.82,ENE,76,0.0,0.0,22,0.00,,SCT045,0.00,VWS V14.01,2013-07-19 18:30:00,
2013-07-19 14:36:00,90.1,46.2,28.82,SSE,166,3.6,4.0,22,0.00,,,0.00,VWS V14.01,2013-07-19 18:36:00,
2013-07-19 14:41:00,90.3,47.5,28.82,SSW,203,4.0,4.0,23,0.00,,,0.00,VWS V14.01,2013-07-19 18:41:00,
2013-07-19 14:46:00,90.3,45.1,28.82,NE,51,0.0,2.2,21,0.00,,,0.00,VWS V14.01,2013-07-19 18:46:00,
2013-07-19 14:51:00,90.1,50.7,28.79,SSW,195,4.0,5.8,26,0.00,,,0.00,VWS V14.01,2013-07-19 18:51:00,
2013-07-19 14:56:00,90.0,51.5,28.79,SSW,209,5.4,5.4,27,0.00,,,0.00,VWS V14.01,2013-07-19 18:56:00,
2013-07-19 15:01:00,89.2,48.8,28.79,South,187,4.9,5.8,25,0.00,,,0.00,VWS V14.01,2013-07-19 19:01:00,
2013-07-19 15:06:00,89.4,52.1,28.79,SW,232,2.7,2.7,28,0.00,,SCT050,0.00,VWS V14.01,2013-07-19 19:06:00,
2013-07-19 15:11:00,89.2,48.8,28.79,NW,307,0.0,0.0,25,0.00,,SCT050,0.00,VWS V14.01,2013-07-19 19:11:00,
2013-07-19 15:16:00,89.2,52.9,28.79,WSW,240,3.1,3.6,29,0.00,,SCT050,0.00,VWS V14.01,2013-07-19 19:16:00,
2013-07-19 15:21:00,88.5,51.3,28.79,SSW,209,4.0,8.1,28,0.00,,SCT050,0.00,VWS V14.01,2013-07-19 19:21:00,
2013-07-19 15:26:00,88.5,51.3,28.79,South,170,3.1,3.1,28,0.00,,SCT050,0.00,VWS V14.01,2013-07-19 19:26:00,
2013-07-19 15:31:00,88.9,52.5,28.79,NE,41,4.9,4.9,29,0.00,,SCT050,0.00,VWS V14.01,2013-07-19 19:31:00,
2013-07-19 15:37:00,89.4,53.0,28.79,South,175,5.8,5.8,29,0.00,,SCT050,0.00,VWS V14.01,2013-07-19 19:37:00,
2013-07-19 15:42:00,88.9,52.5,28.79,SSW,204,5.4,5.4,29,0.00,,SCT050,0.00,VWS V14.01,2013-07-19 19:42:00,
2013-07-19 15:47:00,88.5,51.3,28.76,South,188,8.3,8.3,28,0.00,,SCT050,0.00,VWS V14.01,2013-07-19 19:47:00,
2013-07-19 15:52:00,88.5,51.3,28.76,SSW,193,4.0,5.4,28,0.00,,SCT050,0.00,VWS V14.01,2013-07-19 19:52:00,
2013-07-19 15:57:00,88.7,51.4,28.76,East,93,2.7,4.0,28,0.00,,SCT050,0.00,VWS V14.01,2013-07-19 19:57:00,
2013-07-19 16:02:00,88.7,51.4,28.76,South,181,7.2,7.2,28,0.00,,SCT050,0.00,VWS V14.01,2013-07-19 20:02:00,
2013-07-19 16:07:00,88.7,51.4,28.76,SSW,201,5.8,5.8,28,0.00,,SCT050,0.00,VWS V14.01,2013-07-19 20:07:00,
2013-07-19 16:12:00,88.3,51.1,28.76,WSW,252,6.3,7.6,28,0.00,,SCT050,0.00,VWS V14.01,2013-07-19 20:12:00,
2013-07-19 16:17:00,87.4,52.2,28.76,ENE,78,2.7,2.7,30,0.00,,SCT050,0.00,VWS V14.01,2013-07-19 20:17:00,
2013-07-19 16:22:00,86.7,51.6,28.76,SSW,197,4.0,4.0,30,0.00,,SCT050,0.00,VWS V14.01,2013-07-19 20:22:00,
2013-07-19 16:28:00,86.5,51.5,28.76,WSW,246,8.1,8.3,30,0.00,,SCT050,0.00,VWS V14.01,2013-07-19 20:28:00,
2013-07-19 16:33:00,86.2,52.0,28.76,SSE,160,3.1,7.6,31,0.00,,SCT050,0.00,VWS V14.01,2013-07-19 20:33:00,
2013-07-19 16:38:00,85.8,53.4,28.76,SW,219,8.7,8.7,33,0.00,,SCT050,0.00,VWS V14.01,2013-07-19 20:38:00,
2013-07-19 16:43:00,84.9,51.8,28.76,SSW,192,8.1,11.0,32,0.00,,SCT050,0.00,VWS V14.01,2013-07-19 20:43:00,
2013-07-19 16:48:00,84.7,50.8,28.76,SSW,211,5.4,7.6,31,0.00,,SCT050,0.00,VWS V14.01,2013-07-19 20:48:00,
2013-07-19 16:53:00,84.7,52.5,28.76,SW,219,7.2,7.6,33,0.00,,SCT050,0.00,VWS V14.01,2013-07-19 20:53:00,
2013-07-19 16:58:00,84.7,51.6,28.76,SSW,206,5.8,5.8,32,0.00,,SCT050,0.00,VWS V14.01,2013-07-19 20:58:00,
2013-07-19 17:03:00,85.5,51.4,28.76,WSW,251,2.7,3.1,31,0.00,,,0.00,VWS V14.01,2013-07-19 21:03:00,
2013-07-19 17:08:00,85.8,51.7,28.76,SSW,194,3.1,4.0,31,0.00,,,0.00,VWS V14.01,2013-07-19 21:08:00,
2013-07-19 17:13:00,86.4,53.0,28.76,ENE,77,3.6,3.6,32,0.00,,,0.00,VWS V14.01,2013-07-19 21:13:00,
2013-07-19 17:19:00,86.5,52.3,28.79,SSW,195,2.2,2.2,31,0.00,,,0.00,VWS V14.01,2013-07-19 21:19:00,
2013-07-19 17:24:00,86.5,51.5,28.79,SSW,202,4.0,4.0,30,0.00,,,0.00,VWS V14.01,2013-07-19 21:24:00,
2013-07-19 17:29:00,86.5,51.5,28.79,SW,218,4.0,4.0,30,0.00,,,0.00,VWS V14.01,2013-07-19 21:29:00,
2013-07-19 17:34:00,86.2,51.1,28.76,SE,135,0.0,0.0,30,0.00,,,0.00,VWS V14.01,2013-07-19 21:34:00,
2013-07-19 17:39:00,86.0,51.9,28.76,SSW,209,0.0,0.0,31,0.00,,,0.00,VWS V14.01,2013-07-19 21:39:00,
2013-07-19 17:44:00,85.6,53.3,28.76,SSW,209,0.0,0.0,33,0.00,,,0.00,VWS V14.01,2013-07-19 21:44:00,
2013-07-19 17:49:00,85.5,51.4,28.76,SSW,198,0.0,3.6,31,0.00,,,0.00,VWS V14.01,2013-07-19 21:49:00,
2013-07-19 17:54:00,85.5,52.3,28.76,SSW,196,0.0,0.0,32,0.00,,,0.00,VWS V14.01,2013-07-19 21:54:00,
2013-07-19 17:59:00,85.3,53.8,28.76,SSW,196,0.0,0.0,34,0.00,,,0.00,VWS V14.01,2013-07-19 21:59:00,
2013-07-19 18:05:00,84.9,54.2,28.76,SSW,196,0.0,0.0,35,0.00,,SCT065,0.00,VWS V14.01,2013-07-19 22:05:00,
2013-07-19 18:10:00,84.7,54.1,28.76,SSW,196,0.0,0.0,35,0.00,,SCT065,0.00,VWS V14.01,2013-07-19 22:10:00,
2013-07-19 18:15:00,84.6,54.7,28.76,SSE,155,0.0,0.0,36,0.00,,SCT065,0.00,VWS V14.01,2013-07-19 22:15:00,
2013-07-19 18:20:00,84.4,53.8,28.79,SSE,155,0.0,0.0,35,0.00,,SCT065,0.00,VWS V14.01,2013-07-19 22:20:00,
2013-07-19 18:25:00,84.2,53.6,28.79,SSE,155,0.0,0.0,35,0.00,,SCT065,0.00,VWS V14.01,2013-07-19 22:25:00,
2013-07-19 18:30:00,84.2,52.8,28.79,SSE,155,0.0,0.0,34,0.00,,SCT065,0.00,VWS V14.01,2013-07-19 22:30:00,
2013-07-19 18:35:00,84.4,55.3,28.76,SSE,156,0.0,0.0,37,0.00,,SCT065,0.00,VWS V14.01,2013-07-19 22:35:00,
2013-07-19 18:40:00,84.2,55.1,28.76,WSW,257,0.0,2.7,37,0.00,,SCT065,0.00,VWS V14.01,2013-07-19 22:40:00,
2013-07-19 18:45:00,84.0,54.2,28.76,WSW,257,0.0,0.0,36,0.00,,SCT065,0.00,VWS V14.01,2013-07-19 22:45:00,
2013-07-19 18:50:00,84.0,55.0,28.79,WSW,257,0.0,0.0,37,0.00,,SCT065,0.00,VWS V14.01,2013-07-19 22:50:00,
2013-07-19 18:55:00,84.0,54.2,28.79,WSW,257,0.0,0.0,36,0.00,,SCT065,0.00,VWS V14.01,2013-07-19 22:55:00,
2013-07-19 19:00:00,84.0,55.7,28.79,WSW,257,0.0,0.0,38,0.00,,SCT065,0.00,VWS V14.01,2013-07-19 23:00:00,
2013-07-19 19:05:00,84.0,56.4,28.79,SW,233,0.0,0.0,39,0.00,,FEW065,0.00,VWS V14.01,2013-07-19 23:05:00,
2013-07-19 19:10:00,83.7,53.1,28.79,SSW,209,2.7,3.6,35,0.00,,FEW065,0.00,VWS V14.01,2013-07-19 23:10:00,
2013-07-19 19:16:00,83.7,55.4,28.79,SSW,209,0.0,0.0,38,0.00,,FEW065,0.00,VWS V14.01,2013-07-19 23:16:00,
2013-07-19 19:21:00,83.7,56.1,28.79,SSW,209,0.0,0.0,39,0.00,,FEW065,0.00,VWS V14.01,2013-07-19 23:21:00,
2013-07-19 19:26:00,83.3,53.6,28.79,SSW,209,0.0,0.0,36,0.00,,FEW065,0.00,VWS V14.01,2013-07-19 23:26:00,
2013-07-19 19:31:00,82.9,54.8,28.79,SSW,209,0.0,0.0,38,0.00,,FEW065,0.00,VWS V14.01,2013-07-19 23:31:00,
2013-07-19 19:36:00,82.8,54.6,28.79,SSW,209,0.0,0.0,38,0.00,,FEW065,0.00,VWS V14.01,2013-07-19 23:36:00,
2013-07-19 19:41:00,82.6,55.1,28.79,SSW,209,0.0,0.0,39,0.00,,FEW065,0.00,VWS V14.01,2013-07-19 23:41:00,
2013-07-19 19:46:00,82.2,55.5,28.79,SSW,209,0.0,0.0,40,0.00,,FEW065,0.00,VWS V14.01,2013-07-19 23:46:00,
2013-07-19 19:51:00,82.2,52.6,28.79,West,266,2.7,4.0,36,0.00,,FEW065,0.00,VWS V14.01,2013-07-19 23:51:00,
2013-07-19 19:56:00,82.0,52.5,28.79,West,271,2.7,3.1,36,0.00,,FEW065,0.00,VWS V14.01,2013-07-19 23:56:00,
2013-07-19 20:01:00,82.0,50.9,28.79,WSW,248,2.2,3.6,34,0.00,,FEW065,0.00,VWS V14.01,2013-07-20 00:01:00,
2013-07-19 20:06:00,81.7,49.0,28.76,West,272,2.2,2.7,32,0.00,,SCT100,0.00,VWS V14.01,2013-07-20 00:06:00,
2013-07-19 20:11:00,81.3,48.7,28.76,WNW,295,2.7,3.6,32,0.00,,SCT100,0.00,VWS V14.01,2013-07-20 00:11:00,
2013-07-19 20:16:00,81.1,47.7,28.76,SW,227,0.0,3.1,31,0.00,,SCT100,0.00,VWS V14.01,2013-07-20 00:16:00,
2013-07-19 20:21:00,81.1,47.7,28.76,SW,233,2.2,2.2,31,0.00,,SCT100,0.00,VWS V14.01,2013-07-20 00:21:00,
2013-07-19 20:27:00,80.8,47.4,28.76,SW,233,0.0,0.0,31,0.00,,SCT100,0.00,VWS V14.01,2013-07-20 00:27:00,
2013-07-19 20:31:00,80.6,48.0,28.76,SW,233,0.0,0.0,32,0.00,,SCT100,0.00,VWS V14.01,2013-07-20 00:31:00,
2013-07-19 20:37:00,80.2,49.3,28.76,SW,233,0.0,0.0,34,0.00,,SCT100,0.00,VWS V14.01,2013-07-20 00:37:00,
2013-07-19 20:42:00,79.9,49.8,28.76,SW,233,0.0,0.0,35,0.00,,SCT100,0.00,VWS V14.01,2013-07-20 00:42:00,
2013-07-19 20:47:00,79.7,49.7,28.76,SSE,156,0.0,0.0,35,0.00,,SCT100,0.00,VWS V14.01,2013-07-20 00:47:00,
2013-07-19 20:52:00,79.5,49.5,28.76,SSE,156,0.0,0.0,35,0.00,,SCT100,0.00,VWS V14.01,2013-07-20 00:52:00,
2013-07-19 20:57:00,79.7,50.4,28.76,SSE,156,0.0,0.0,36,0.00,,SCT100,0.00,VWS V14.01,2013-07-20 00:57:00,
2013-07-19 21:02:00,79.7,49.7,28.79,SSE,156,0.0,0.0,35,0.00,,SCT100,0.00,VWS V14.01,2013-07-20 01:02:00,
2013-07-19 21:07:00,79.9,50.6,28.79,SSE,156,0.0,0.0,36,0.00,,SCT100,0.00,VWS V14.01,2013-07-20 01:07:00,
2013-07-19 21:12:00,79.7,49.7,28.79,SSE,156,0.0,0.0,35,0.00,,SCT100,0.00,VWS V14.01,2013-07-20 01:12:00,
2013-07-19 21:17:00,79.5,48.7,28.79,SSE,156,0.0,0.0,34,0.00,,SCT100,0.00,VWS V14.01,2013-07-20 01:17:00,
2013-07-19 21:22:00,79.3,48.6,28.79,SSE,156,0.0,0.0,34,0.00,,SCT100,0.00,VWS V14.01,2013-07-20 01:22:00,
2013-07-19 21:27:00,79.3,48.6,28.79,SSE,156,0.0,0.0,34,0.00,,SCT100,0.00,VWS V14.01,2013-07-20 01:27:00,
2013-07-19 21:32:00,79.2,48.4,28.79,SSE,156,0.0,0.0,34,0.00,,SCT100,0.00,VWS V14.01,2013-07-20 01:32:00,
2013-07-19 21:37:00,78.8,48.9,28.79,SSE,156,0.0,0.0,35,0.00,,SCT100,0.00,VWS V14.01,2013-07-20 01:37:00,
2013-07-19 21:42:00,78.6,50.2,28.79,SSE,156,0.0,0.0,37,0.00,,SCT100,0.00,VWS V14.01,2013-07-20 01:42:00,
2013-07-19 21:48:00,78.6,51.6,28.82,SSE,156,0.0,0.0,39,0.00,,SCT100,0.00,VWS V14.01,2013-07-20 01:48:00,
2013-07-19 21:53:00,78.4,51.5,28.82,SSE,156,0.0,0.0,39,0.00,,SCT100,0.00,VWS V14.01,2013-07-20 01:53:00,
2013-07-19 21:58:00,78.3,50.6,28.82,SSE,156,0.0,0.0,38,0.00,,SCT100,0.00,VWS V14.01,2013-07-20 01:58:00,
2013-07-19 22:03:00,78.1,51.8,28.82,SSE,156,0.0,0.0,40,0.00,,OVC085,0.00,VWS V14.01,2013-07-20 02:03:00,
2013-07-19 22:08:00,77.9,52.3,28.82,SSE,156,0.0,0.0,41,0.00,,OVC085,0.00,VWS V14.01,2013-07-20 02:08:00,
2013-07-19 22:13:00,77.7,52.2,28.82,SSE,156,0.0,0.0,41,0.00,,OVC085,0.00,VWS V14.01,2013-07-20 02:13:00,
2013-07-19 22:18:00,77.5,51.3,28.82,SSE,156,0.0,0.0,40,0.00,,OVC085,0.00,VWS V14.01,2013-07-20 02:18:00,
2013-07-19 22:23:00,77.5,52.0,28.82,SSE,156,0.0,0.0,41,0.00,,OVC085,0.00,VWS V14.01,2013-07-20 02:23:00,
2013-07-19 22:28:00,77.4,52.5,28.82,SSE,156,0.0,0.0,42,0.00,,OVC085,0.00,VWS V14.01,2013-07-20 02:28:00,
2013-07-19 22:34:00,77.2,51.7,28.82,SSE,156,0.0,0.0,41,0.00,,OVC085,0.00,VWS V14.01,2013-07-20 02:34:00,
2013-07-19 22:39:00,77.4,52.5,28.82,SSE,156,0.0,0.0,42,0.00,,OVC085,0.00,VWS V14.01,2013-07-20 02:39:00,
2013-07-19 22:44:00,77.5,52.7,28.82,SSE,156,0.0,0.0,42,0.00,,OVC085,0.00,VWS V14.01,2013-07-20 02:44:00,
2013-07-19 22:49:00,77.4,52.5,28.79,SSE,156,0.0,0.0,42,0.00,,OVC085,0.00,VWS V14.01,2013-07-20 02:49:00,
2013-07-19 22:54:00,77.2,52.3,28.79,SSE,156,0.0,0.0,42,0.00,,OVC085,0.00,VWS V14.01,2013-07-20 02:54:00,